Terminal Aerodrome Forecast
Issued by NWS

Home | Current Version | Previous Version | Text Only | Print | Product List | Glossary On
Versions: 1 2 3 4 5 6 7 8 9 10 11 12 13 14 15 16
000
FTUS44 KMAF 031415 AAB
TAFINK
TAF AMD
KINK 031415Z 0314/0412 11007KT P6SM SCT018 BKN150
      TEMPO 0314/0316 BKN018 BKN150
     FM031800 12011KT P6SM SCT040 BKN150=

USA.gov is the U.S. government's official web portal to all federal, state and local government web resources and services.